createdAt,value
2018-05-17T00:01:18.555Z,13.14
2018-05-17T00:03:47.272Z,13.14
2018-05-17T00:06:15.412Z,13.14
2018-05-17T00:08:43.553Z,13.15
2018-05-17T00:11:11.688Z,13.15
2018-05-17T00:13:39.819Z,13.16
2018-05-17T00:16:08.040Z,13.16
2018-05-17T00:18:36.158Z,13.16
2018-05-17T00:21:04.295Z,13.15
2018-05-17T00:23:32.421Z,13.15
2018-05-17T00:26:00.555Z,13.17
2018-05-17T00:28:28.675Z,13.21
2018-05-17T00:30:56.802Z,13.22
2018-05-17T00:33:24.927Z,13.23
2018-05-17T00:35:53.045Z,13.25
2018-05-17T00:38:21.167Z,13.26
2018-05-17T00:40:49.292Z,13.26
2018-05-17T00:43:17.407Z,13.28
2018-05-17T00:45:45.543Z,13.33
2018-05-17T00:48:13.677Z,13.31
2018-05-17T00:50:41.787Z,13.31
2018-05-17T00:53:32.933Z,13.34
2018-05-17T00:56:01.043Z,13.37
2018-05-17T00:58:29.163Z,13.32
2018-05-17T01:00:57.287Z,13.31
2018-05-17T01:03:25.397Z,13.27
2018-05-17T01:05:53.524Z,13.25
2018-05-17T01:08:21.644Z,13.28
2018-05-17T01:10:49.780Z,13.25
2018-05-17T01:13:17.886Z,13.25
2018-05-17T01:15:46.021Z,13.21
2018-05-17T01:18:14.134Z,13.19
2018-05-17T01:20:42.256Z,13.18
2018-05-17T01:23:10.389Z,13.21
2018-05-17T01:25:38.507Z,13.15
2018-05-17T01:28:06.631Z,13.13
2018-05-17T01:30:34.761Z,13.10
2018-05-17T01:33:02.881Z,13.09
2018-05-17T01:35:30.992Z,13.07
2018-05-17T01:38:10.999Z,13.03
2018-05-17T01:40:39.140Z,13.03
2018-05-17T01:43:07.285Z,13.02
2018-05-17T01:45:35.439Z,13.00
2018-05-17T01:48:03.569Z,12.98
2018-05-17T01:50:31.696Z,12.96
2018-05-17T01:52:59.823Z,12.93
2018-05-17T01:55:27.952Z,12.91
2018-05-17T01:57:56.105Z,12.91
2018-05-17T02:00:24.271Z,12.91
2018-05-17T02:02:52.404Z,13.01
2018-05-17T02:05:20.529Z,12.94
2018-05-17T02:07:48.692Z,12.91
2018-05-17T02:10:16.797Z,12.89
2018-05-17T02:12:44.916Z,12.87
2018-05-17T02:15:13.043Z,12.86
2018-05-17T02:17:41.172Z,12.85
2018-05-17T02:20:09.290Z,12.84
2018-05-17T02:22:37.413Z,12.84
2018-05-17T02:25:05.636Z,12.82
2018-05-17T02:27:33.778Z,12.84
2018-05-17T02:30:01.920Z,12.87
2018-05-17T02:32:33.883Z,12.91
2018-05-17T02:35:02.008Z,12.86
2018-05-17T02:37:30.142Z,12.93
2018-05-17T02:39:58.423Z,12.88
2018-05-17T02:42:26.442Z,12.87
2018-05-17T02:44:54.570Z,12.84
2018-05-17T02:47:22.766Z,12.88
2018-05-17T02:49:50.830Z,12.85
2018-05-17T02:52:18.971Z,12.82
2018-05-17T02:54:47.091Z,12.98
2018-05-17T02:57:15.235Z,12.89
2018-05-17T02:59:43.372Z,12.85
2018-05-17T03:02:11.486Z,12.81
2018-05-17T03:04:39.634Z,12.80
2018-05-17T03:07:07.776Z,12.80
2018-05-17T03:09:35.907Z,12.79
2018-05-17T03:12:04.044Z,12.83
2018-05-17T03:14:32.173Z,12.82
2018-05-17T03:17:00.324Z,12.84
2018-05-17T03:19:28.440Z,12.83
2018-05-17T03:21:56.572Z,12.85
2018-05-17T03:24:24.714Z,12.86
2018-05-17T03:26:52.876Z,12.89
2018-05-17T03:29:21.003Z,12.81
2018-05-17T03:31:49.143Z,12.90
2018-05-17T03:34:17.267Z,12.93
2018-05-17T03:36:45.408Z,12.98
2018-05-17T03:39:13.544Z,12.98
2018-05-17T03:41:41.669Z,12.98
2018-05-17T03:44:09.818Z,13.06
2018-05-17T03:46:37.948Z,13.09
2018-05-17T03:49:06.155Z,13.06
2018-05-17T03:51:34.473Z,13.10
2018-05-17T03:54:02.622Z,13.14
2018-05-17T03:56:30.746Z,13.11
2018-05-17T03:58:58.915Z,13.14
2018-05-17T04:01:38.731Z,13.14
2018-05-17T04:04:18.707Z,13.08
2018-05-17T04:06:46.855Z,13.08
2018-05-17T04:09:15.006Z,13.10
2018-05-17T04:11:43.127Z,13.11
2018-05-17T04:14:11.254Z,13.17
2018-05-17T04:16:39.388Z,13.21
2018-05-17T04:19:07.529Z,13.21
2018-05-17T04:21:35.666Z,13.18
2018-05-17T04:24:03.886Z,13.16
2018-05-17T04:26:31.957Z,13.14
2018-05-17T04:29:00.117Z,13.20
2018-05-17T04:31:28.253Z,13.22
2018-05-17T04:33:56.402Z,13.18
2018-05-17T04:36:24.538Z,13.17
2018-05-17T04:38:52.666Z,13.15
2018-05-17T04:41:20.828Z,13.17
2018-05-17T04:43:48.960Z,13.21
2018-05-17T04:46:17.089Z,13.19
2018-05-17T04:48:45.207Z,13.17
2018-05-17T04:51:13.356Z,13.26
2018-05-17T04:53:41.510Z,13.27
2018-05-17T04:56:09.636Z,13.27
2018-05-17T04:58:37.766Z,13.31
2018-05-17T05:01:05.925Z,13.35
2018-05-17T05:03:34.059Z,13.44
2018-05-17T05:06:02.190Z,13.44
2018-05-17T05:08:30.457Z,13.40
2018-05-17T05:10:58.583Z,13.43
2018-05-17T05:13:26.727Z,13.52
2018-05-17T05:15:54.867Z,13.62
2018-05-17T05:18:23.005Z,13.63
2018-05-17T05:20:51.160Z,13.71
2018-05-17T05:23:19.293Z,13.78
2018-05-17T05:25:47.424Z,13.92
2018-05-17T05:28:15.551Z,14.07
2018-05-17T05:30:43.679Z,14.23
2018-05-17T05:33:11.816Z,14.41
2018-05-17T05:35:39.951Z,14.59
2018-05-17T05:38:08.081Z,14.72
2018-05-17T05:40:36.218Z,14.72
2018-05-17T05:43:04.346Z,14.67
2018-05-17T05:45:32.499Z,14.49
2018-05-17T05:48:00.621Z,14.42
2018-05-17T05:50:28.756Z,14.39
2018-05-17T05:52:56.892Z,14.39
2018-05-17T05:55:25.052Z,14.24
2018-05-17T05:57:53.159Z,14.21
2018-05-17T06:00:22.020Z,14.22
2018-05-17T06:02:50.136Z,14.19
2018-05-17T06:05:18.271Z,14.14
2018-05-17T06:07:46.398Z,14.14
2018-05-17T06:10:14.542Z,14.23
2018-05-17T06:12:42.694Z,14.20
2018-05-17T06:15:10.808Z,14.09
2018-05-17T06:17:38.951Z,14.13
2018-05-17T06:20:07.088Z,14.12
2018-05-17T06:22:35.217Z,14.10
2018-05-17T06:25:03.363Z,14.03
2018-05-17T06:27:31.490Z,14.05
2018-05-17T06:29:59.638Z,14.06
2018-05-17T06:32:27.772Z,14.11
2018-05-17T06:34:55.902Z,14.12
2018-05-17T06:37:24.037Z,14.15
2018-05-17T06:39:52.172Z,14.27
2018-05-17T06:42:20.724Z,14.29
2018-05-17T06:44:48.857Z,14.28
2018-05-17T06:47:16.987Z,14.26
2018-05-17T06:49:45.118Z,14.29
2018-05-17T06:52:13.267Z,14.33
2018-05-17T06:54:41.430Z,14.33
2018-05-17T06:57:10.340Z,14.23
2018-05-17T06:59:38.470Z,14.27
2018-05-17T07:02:06.600Z,14.27
2018-05-17T07:04:34.743Z,14.36
2018-05-17T07:07:02.866Z,14.34
2018-05-17T07:09:31.005Z,14.43
2018-05-17T07:11:59.138Z,14.48
2018-05-17T07:14:27.274Z,14.49
2018-05-17T07:16:55.407Z,14.48
2018-05-17T07:19:23.543Z,14.53
2018-05-17T07:21:51.677Z,14.63
2018-05-17T07:24:19.799Z,14.72
2018-05-17T07:26:47.943Z,14.74
2018-05-17T07:29:16.073Z,14.86
2018-05-17T07:31:44.205Z,14.89
2018-05-17T07:34:12.345Z,14.96
2018-05-17T07:36:40.488Z,14.93
2018-05-17T07:39:08.702Z,15.02
2018-05-17T07:41:36.776Z,14.89
2018-05-17T07:44:04.919Z,14.88
2018-05-17T07:46:33.064Z,14.84
2018-05-17T07:49:01.207Z,14.90
2018-05-17T07:51:29.341Z,14.90
2018-05-17T07:53:57.473Z,14.93
2018-05-17T07:56:25.624Z,14.94
2018-05-17T07:58:53.741Z,15.02
2018-05-17T08:01:21.887Z,15.00
2018-05-17T08:03:50.027Z,14.96
2018-05-17T08:06:18.182Z,15.00
2018-05-17T08:08:46.311Z,15.12
2018-05-17T08:11:14.472Z,15.12
2018-05-17T08:13:42.577Z,15.09
2018-05-17T08:16:10.730Z,15.03
2018-05-17T08:18:38.861Z,15.14
2018-05-17T08:21:07.008Z,15.15
2018-05-17T08:23:35.138Z,15.15
2018-05-17T08:26:03.277Z,15.14
2018-05-17T08:28:31.407Z,15.21
2018-05-17T08:30:59.540Z,15.23
2018-05-17T08:33:27.679Z,15.19
2018-05-17T08:35:55.826Z,15.16
2018-05-17T08:38:23.952Z,15.11
2018-05-17T08:40:52.099Z,15.06
2018-05-17T08:43:20.248Z,15.04
2018-05-17T08:45:48.384Z,15.07
2018-05-17T08:48:16.509Z,14.94
2018-05-17T08:50:44.652Z,14.91
2018-05-17T08:53:12.771Z,14.88
2018-05-17T08:55:40.909Z,14.88
2018-05-17T08:58:09.028Z,14.83
2018-05-17T09:00:37.166Z,14.75
2018-05-17T09:03:05.307Z,14.71
2018-05-17T09:05:33.446Z,14.69
2018-05-17T09:08:01.568Z,14.65
2018-05-17T09:10:29.708Z,14.68
2018-05-17T09:12:57.836Z,14.79
2018-05-17T09:15:25.959Z,14.67
2018-05-17T09:17:54.131Z,14.72
2018-05-17T09:20:22.277Z,14.64
2018-05-17T09:22:50.393Z,14.61
2018-05-17T09:25:18.566Z,14.60
2018-05-17T09:27:46.690Z,14.73
2018-05-17T09:30:15.214Z,14.77
2018-05-17T09:32:43.460Z,14.88
2018-05-17T09:35:11.583Z,14.88
2018-05-17T09:37:39.714Z,14.98
2018-05-17T09:40:07.848Z,15.09
2018-05-17T09:42:35.975Z,15.20
2018-05-17T09:45:04.094Z,15.30
2018-05-17T09:47:32.234Z,15.37
2018-05-17T09:50:00.441Z,15.42
2018-05-17T09:52:28.486Z,15.52
2018-05-17T09:54:56.647Z,15.65
2018-05-17T09:57:24.762Z,15.79
2018-05-17T09:59:52.886Z,15.85
2018-05-17T10:02:21.032Z,15.99
2018-05-17T10:04:49.167Z,16.08
2018-05-17T10:07:17.559Z,16.05
2018-05-17T10:09:45.698Z,16.16
2018-05-17T10:12:13.825Z,16.12
2018-05-17T10:14:42.025Z,16.08
2018-05-17T10:17:10.804Z,16.03
2018-05-17T10:19:38.950Z,15.96
2018-05-17T10:22:07.103Z,15.90
2018-05-17T10:24:35.272Z,15.83
2018-05-17T10:27:03.397Z,15.86
2018-05-17T10:29:31.576Z,15.86
2018-05-17T10:31:59.660Z,15.88
2018-05-17T10:34:27.827Z,15.95
2018-05-17T10:36:55.960Z,15.99
2018-05-17T10:39:24.094Z,16.03
2018-05-17T10:41:52.238Z,15.95
2018-05-17T10:44:20.374Z,15.88
2018-05-17T10:46:48.520Z,15.90
2018-05-17T10:49:16.647Z,15.92
2018-05-17T10:51:44.775Z,16.03
2018-05-17T10:54:12.897Z,15.93
2018-05-17T10:56:41.043Z,15.89
2018-05-17T10:59:09.165Z,15.86
2018-05-17T11:01:37.292Z,15.79
2018-05-17T11:04:05.427Z,15.80
2018-05-17T11:06:33.550Z,15.72
2018-05-17T11:09:01.702Z,15.64
2018-05-17T11:11:29.835Z,15.60
2018-05-17T11:13:57.971Z,15.54
2018-05-17T11:16:26.095Z,15.57
2018-05-17T11:18:54.237Z,15.50
2018-05-17T11:21:22.408Z,15.43
2018-05-17T11:23:50.543Z,15.40
2018-05-17T11:26:18.684Z,15.40
2018-05-17T11:28:46.822Z,15.46
2018-05-17T11:31:14.983Z,15.42
2018-05-17T11:33:43.124Z,15.38
2018-05-17T11:36:11.251Z,15.43
2018-05-17T11:38:39.374Z,15.42
2018-05-17T11:41:07.557Z,15.42
2018-05-17T11:43:35.719Z,15.40
2018-05-17T11:46:03.863Z,15.39
2018-05-17T11:48:32.014Z,15.33
2018-05-17T11:51:00.135Z,15.34
2018-05-17T11:53:28.272Z,15.31
2018-05-17T11:55:56.421Z,15.27
2018-05-17T11:58:24.565Z,15.22
2018-05-17T12:00:52.693Z,15.29
2018-05-17T12:03:20.820Z,15.32
2018-05-17T12:05:48.947Z,15.37
2018-05-17T12:08:17.076Z,15.43
2018-05-17T12:10:46.216Z,15.43
2018-05-17T12:13:14.352Z,15.51
2018-05-17T12:15:42.670Z,15.59
2018-05-17T12:18:10.650Z,15.55
2018-05-17T12:20:38.770Z,15.55
2018-05-17T12:23:07.134Z,15.59
2018-05-17T12:25:35.153Z,15.64
2018-05-17T12:28:03.291Z,15.55
2018-05-17T12:30:31.452Z,15.69
2018-05-17T12:32:59.583Z,15.70
2018-05-17T12:35:27.743Z,15.68
2018-05-17T12:37:55.874Z,15.70
2018-05-17T12:40:24.012Z,15.82
2018-05-17T12:42:52.161Z,15.72
2018-05-17T12:45:20.301Z,15.68
2018-05-17T12:47:48.439Z,15.74
2018-05-17T12:50:16.577Z,15.70
2018-05-17T12:52:44.709Z,15.64
2018-05-17T12:55:12.868Z,15.64
2018-05-17T12:57:40.998Z,15.63
2018-05-17T13:00:09.130Z,15.67
2018-05-17T13:02:37.274Z,15.63
2018-05-17T13:05:07.164Z,15.64
2018-05-17T13:07:35.297Z,15.58
2018-05-17T13:10:03.425Z,15.62
2018-05-17T13:12:31.569Z,15.67
2018-05-17T13:14:59.735Z,15.69
2018-05-17T13:17:27.874Z,15.74
2018-05-17T13:19:56.002Z,15.77
2018-05-17T13:22:24.150Z,15.83
2018-05-17T13:24:52.329Z,15.88
2018-05-17T13:27:20.421Z,15.95
2018-05-17T13:29:48.577Z,16.02
2018-05-17T13:32:16.708Z,15.96
2018-05-17T13:34:44.852Z,15.97
2018-05-17T13:37:13.119Z,15.80
2018-05-17T13:39:41.200Z,15.72
2018-05-17T13:42:09.337Z,15.66
2018-05-17T13:44:37.478Z,15.67
2018-05-17T13:47:05.657Z,15.55
2018-05-17T13:49:33.784Z,15.56
2018-05-17T13:52:01.916Z,15.58
2018-05-17T13:54:30.048Z,15.49
2018-05-17T13:56:58.190Z,15.47
2018-05-17T13:59:26.333Z,15.48
2018-05-17T14:01:54.476Z,15.48
2018-05-17T14:04:22.610Z,15.44
2018-05-17T14:06:50.751Z,15.42
2018-05-17T14:09:18.896Z,15.40
2018-05-17T14:11:47.567Z,15.44
2018-05-17T14:14:15.719Z,15.52
2018-05-17T14:16:43.839Z,15.50
2018-05-17T14:19:12.034Z,15.48
2018-05-17T14:21:40.186Z,15.48
2018-05-17T14:24:09.158Z,15.50
2018-05-17T14:26:37.319Z,15.51
2018-05-17T14:29:05.476Z,15.58
2018-05-17T14:31:33.624Z,15.54
2018-05-17T14:34:01.746Z,15.54
2018-05-17T14:36:29.898Z,15.53
2018-05-17T14:38:58.045Z,15.57
2018-05-17T14:41:26.190Z,15.58
2018-05-17T14:43:54.325Z,15.58
2018-05-17T14:46:22.458Z,15.55
2018-05-17T14:48:50.595Z,15.53
2018-05-17T14:51:19.289Z,15.52
2018-05-17T14:53:47.439Z,15.49
2018-05-17T14:56:15.575Z,15.48
2018-05-17T14:58:44.033Z,15.51
2018-05-17T15:01:12.259Z,15.55
2018-05-17T15:03:40.351Z,15.59
2018-05-17T15:06:08.484Z,15.62
2018-05-17T15:08:36.636Z,15.69
2018-05-17T15:11:04.778Z,15.79
2018-05-17T15:13:32.935Z,15.90
2018-05-17T15:16:01.078Z,16.01
2018-05-17T15:18:29.203Z,16.11
2018-05-17T15:20:57.341Z,16.29
2018-05-17T15:23:25.491Z,16.44
2018-05-17T15:25:53.638Z,16.54
2018-05-17T15:28:21.815Z,16.64
2018-05-17T15:30:49.988Z,16.67
2018-05-17T15:33:18.164Z,16.70
2018-05-17T15:35:46.349Z,16.74
2018-05-17T15:38:14.489Z,16.59
2018-05-17T15:40:42.613Z,16.58
2018-05-17T15:43:10.758Z,16.48
2018-05-17T15:45:38.881Z,16.46
2018-05-17T15:48:07.081Z,16.41
2018-05-17T15:50:35.170Z,16.38
2018-05-17T15:53:03.370Z,16.33
2018-05-17T15:55:31.502Z,16.31
2018-05-17T15:57:59.655Z,16.27
2018-05-17T16:00:27.799Z,16.29
2018-05-17T16:02:55.937Z,16.26
2018-05-17T16:05:24.073Z,16.30
2018-05-17T16:07:52.209Z,16.28
2018-05-17T16:10:20.346Z,16.22
2018-05-17T16:12:48.497Z,16.25
2018-05-17T16:15:16.788Z,16.27
2018-05-17T16:17:44.811Z,16.25
2018-05-17T16:20:12.951Z,16.19
2018-05-17T16:22:41.099Z,16.24
2018-05-17T16:25:10.277Z,16.25
2018-05-17T16:27:38.417Z,16.24
2018-05-17T16:30:06.546Z,16.19
2018-05-17T16:32:34.701Z,16.17
2018-05-17T16:35:02.843Z,16.15
2018-05-17T16:37:30.987Z,16.12
2018-05-17T16:39:59.119Z,16.13
2018-05-17T16:42:27.249Z,16.11
2018-05-17T16:44:55.381Z,16.08
2018-05-17T16:47:23.556Z,16.04
2018-05-17T16:49:52.086Z,16.04
2018-05-17T16:52:20.248Z,16.06
2018-05-17T16:54:48.382Z,16.04
2018-05-17T16:57:16.534Z,16.04
2018-05-17T16:59:44.685Z,16.03
2018-05-17T17:02:12.819Z,16.02
2018-05-17T17:04:41.052Z,15.99
2018-05-17T17:07:09.100Z,15.98
2018-05-17T17:09:37.250Z,15.94
2018-05-17T17:12:05.374Z,15.91
2018-05-17T17:14:33.508Z,15.86
2018-05-17T17:17:01.654Z,15.85
2018-05-17T17:19:29.799Z,15.82
2018-05-17T17:21:57.925Z,15.82
2018-05-17T17:24:26.076Z,15.80
2018-05-17T17:26:54.213Z,15.77
2018-05-17T17:29:22.333Z,15.76
2018-05-17T17:31:50.476Z,15.74
2018-05-17T17:34:18.655Z,15.72
2018-05-17T17:36:46.754Z,15.70
2018-05-17T17:39:14.916Z,15.67
2018-05-17T17:41:43.094Z,15.66
2018-05-17T17:44:11.255Z,15.65
2018-05-17T17:46:39.404Z,15.64
2018-05-17T17:49:07.563Z,15.64
2018-05-17T17:51:35.686Z,15.64
2018-05-17T17:54:03.841Z,15.64
2018-05-17T17:56:31.969Z,15.65
2018-05-17T17:59:00.100Z,15.64
2018-05-17T18:01:28.240Z,15.64
2018-05-17T18:03:56.390Z,15.63
2018-05-17T18:06:24.824Z,15.60
2018-05-17T18:08:52.965Z,15.57
2018-05-17T18:11:21.260Z,15.54
2018-05-17T18:13:49.395Z,15.52
2018-05-17T18:16:17.535Z,15.48
2018-05-17T18:18:46.549Z,15.46
2018-05-17T18:21:14.718Z,15.46
2018-05-17T18:23:42.854Z,15.45
2018-05-17T18:26:11.092Z,15.43
2018-05-17T18:28:39.172Z,15.41
2018-05-17T18:31:07.358Z,15.40
2018-05-17T18:33:35.511Z,15.39
2018-05-17T18:36:03.667Z,15.39
2018-05-17T18:38:32.555Z,15.35
2018-05-17T18:41:00.683Z,15.34
2018-05-17T18:43:28.819Z,15.31
2018-05-17T18:45:56.958Z,15.26
2018-05-17T18:48:25.094Z,15.22
2018-05-17T18:50:53.248Z,15.20
2018-05-17T18:53:21.407Z,15.18
2018-05-17T18:55:49.759Z,15.14
2018-05-17T18:58:17.847Z,15.15
2018-05-17T19:00:46.156Z,15.11
2018-05-17T19:03:14.309Z,15.03
2018-05-17T19:05:42.459Z,14.99
2018-05-17T19:08:10.616Z,14.94
2018-05-17T19:10:38.774Z,14.94
2018-05-17T19:13:06.961Z,14.92
2018-05-17T19:15:35.099Z,14.93
2018-05-17T19:18:03.244Z,14.92
2018-05-17T19:20:31.459Z,14.90
2018-05-17T19:22:59.547Z,14.87
2018-05-17T19:25:27.852Z,14.86
2018-05-17T19:27:56.024Z,14.84
2018-05-17T19:30:24.174Z,14.83
2018-05-17T19:32:52.468Z,14.83
2018-05-17T19:35:20.604Z,14.81
2018-05-17T19:37:48.737Z,14.79
2018-05-17T19:40:16.871Z,14.79
2018-05-17T19:42:45.028Z,14.77
2018-05-17T19:45:14.025Z,14.77
2018-05-17T19:47:42.175Z,14.77
2018-05-17T19:50:10.297Z,14.76
2018-05-17T19:52:38.426Z,14.75
2018-05-17T19:55:06.674Z,14.75
2018-05-17T19:57:34.807Z,14.75
2018-05-17T20:00:02.969Z,14.74
2018-05-17T20:02:31.135Z,14.72
2018-05-17T20:04:59.352Z,14.71
2018-05-17T20:07:27.440Z,14.71
2018-05-17T20:09:55.575Z,14.70
2018-05-17T20:12:23.716Z,14.67
2018-05-17T20:14:51.852Z,14.66
2018-05-17T20:17:20.018Z,14.64
2018-05-17T20:19:48.158Z,14.62
2018-05-17T20:22:16.297Z,14.61
2018-05-17T20:24:44.450Z,14.60
2018-05-17T20:27:12.606Z,14.56
2018-05-17T20:29:40.779Z,14.54
2018-05-17T20:32:08.916Z,14.48
2018-05-17T20:34:37.066Z,14.47
2018-05-17T20:37:05.216Z,14.45
2018-05-17T20:39:33.369Z,14.43
2018-05-17T20:42:01.523Z,14.42
2018-05-17T20:44:29.695Z,14.40
2018-05-17T20:46:57.829Z,14.37
2018-05-17T20:49:25.971Z,14.35
2018-05-17T20:51:54.305Z,14.33
2018-05-17T20:54:22.454Z,14.31
2018-05-17T20:56:50.600Z,14.28
2018-05-17T20:59:18.734Z,14.26
2018-05-17T21:01:46.889Z,14.22
2018-05-17T21:04:15.047Z,14.22
2018-05-17T21:06:43.183Z,14.23
2018-05-17T21:09:11.337Z,14.23
2018-05-17T21:11:39.475Z,14.22
2018-05-17T21:14:07.615Z,14.20
2018-05-17T21:16:35.749Z,14.25
2018-05-17T21:19:03.903Z,14.24
2018-05-17T21:21:32.044Z,14.28
2018-05-17T21:24:00.200Z,14.35
2018-05-17T21:26:28.360Z,14.36
2018-05-17T21:28:56.501Z,14.40
2018-05-17T21:31:24.659Z,14.32
2018-05-17T21:33:52.808Z,14.31
2018-05-17T21:36:20.937Z,14.27
2018-05-17T21:38:49.085Z,14.28
2018-05-17T21:41:17.228Z,14.25
2018-05-17T21:43:45.372Z,14.30
2018-05-17T21:46:13.520Z,14.25
2018-05-17T21:48:41.659Z,14.28
2018-05-17T21:51:10.075Z,14.27
2018-05-17T21:53:38.215Z,14.24
2018-05-17T21:56:06.352Z,14.29
2018-05-17T21:58:34.500Z,14.32
2018-05-17T22:01:02.785Z,14.30
2018-05-17T22:03:31.038Z,14.29
2018-05-17T22:05:59.155Z,14.25
2018-05-17T22:08:27.310Z,14.30
2018-05-17T22:10:55.451Z,14.23
2018-05-17T22:13:23.587Z,14.20
2018-05-17T22:15:51.737Z,14.15
2018-05-17T22:18:19.855Z,14.13
2018-05-17T22:20:48.002Z,14.09
2018-05-17T22:23:16.160Z,14.10
2018-05-17T22:25:44.286Z,14.08
2018-05-17T22:28:13.734Z,14.06
2018-05-17T22:30:41.878Z,14.04
2018-05-17T22:33:10.255Z,13.94
2018-05-17T22:35:38.853Z,14.03
2018-05-17T22:38:07.032Z,14.03
2018-05-17T22:40:35.158Z,14.01
2018-05-17T22:43:03.294Z,14.09
2018-05-17T22:45:31.448Z,14.13
2018-05-17T22:47:59.578Z,14.13
2018-05-17T22:50:27.722Z,14.20
2018-05-17T22:52:55.857Z,14.17
2018-05-17T22:55:23.987Z,14.12
2018-05-17T22:58:03.917Z,14.06
2018-05-17T23:00:32.043Z,14.05
2018-05-17T23:03:00.179Z,14.08
2018-05-17T23:05:28.325Z,14.03
2018-05-17T23:07:56.459Z,14.00
2018-05-17T23:10:24.606Z,13.97
2018-05-17T23:12:52.771Z,13.95
2018-05-17T23:15:20.907Z,13.97
2018-05-17T23:17:49.052Z,13.95
2018-05-17T23:20:17.194Z,13.94
2018-05-17T23:22:45.343Z,14.04
2018-05-17T23:25:13.479Z,13.98
2018-05-17T23:27:41.616Z,13.97
2018-05-17T23:30:09.763Z,13.94
2018-05-17T23:32:37.886Z,13.93
2018-05-17T23:35:06.115Z,13.91
2018-05-17T23:37:34.237Z,13.93
2018-05-17T23:43:05.033Z,13.93
2018-05-17T23:45:33.162Z,13.95
2018-05-17T23:48:01.318Z,13.97
2018-05-17T23:50:29.467Z,14.01
2018-05-17T23:52:57.627Z,14.04
2018-05-17T23:55:25.765Z,14.01
2018-05-17T23:57:54.707Z,14.01
